Ana Sayfa
METAR-TAF:

METAR-TAF

Havaalanları :

Bahreyn, Bahreyn

Enlem: 26-16N, Boylam: 050-39E, yükseklik: 2 m

Güncel hava durumu gözlemi

Rapor saat 22:30 UTC de 6 dakika önce yapıldı.
Rüzgar doğu/güneydoğudan 5 kt
Sıcaklık 27°C
Nem 70%
Basınç 1007 hPa
Görüş mesafesi 10 km veya daha fazla
1500 m altında bulut yok ve kümülonimbus yok

METAR: OBBI 212230Z 11005KT CAVOK 27/21 Q1007 NOSIG

Saat: 01:36 (22:36 UTC)

Tahmin

Rapor saat 17:00 UTC de 5 saat ve 36 dakika önce yapıldı.
Ayın 21'si saat 18 UTC'den ayın 23'si saat 00 UTC'ye kadar geçerli Tahmin
Rüzgar değişken yönden 5 kt
Görüş mesafesi 10 km veya daha fazla
1500 m altında bulut yok ve kümülonimbus yok

TAF: OBBI 211700Z 2118/2300 VRB05KT CAVOK

4.000'den fazla havaalanı için hava durumu gözlemleri ve tahminleri (METAR ve TAF raporları).

Kullanılabilir istasyonlar harita üzerinde sarı ve kırmızı noktalarla gösterilir.

İstasyonun adını görmek için fareyi noktanın üzerinde gezdirin.

Sonrasında hava gözlem ve tahminlerini görmek için tıklayın.

Haritayı değiştirmek için: yaklaştırmak için siyah artı işaretli yeşil düğmeye ve uzaklaştırmak için de eksi işaretli düğmeye hızla tıklayın; bitişik haritalar için yeşil okları kullanın.


METAR-TAF: